Time;durP1;ratioP1;P1;durP2;ratioP2;P2;SDS_P1;SDS_P2;PMS_P1;PMS_P2;Temp;Humidity;BMP_temperature;BMP_pressure;BME280_temperature;BME280_humidity;BME280_pressure;Samples;Min_cycle;Max_cycle;Signal;HPM_P1;HPM_P2
2023/09/10 00:00:35;;;;;;;7.93;7.13;;;23.10;62.70;;;;;;5017458;28;20056;-60
2023/09/10 00:03:00;;;;;;;8.40;6.63;;;23.10;62.80;;;;;;5014443;28;20053;-63
2023/09/10 00:05:26;;;;;;;8.32;7.05;;;23.10;62.70;;;;;;5021803;28;20064;-63
2023/09/10 00:07:52;;;;;;;8.40;7.60;;;23.10;62.70;;;;;;5020320;28;20098;-63
2023/09/10 00:10:18;;;;;;;7.72;7.03;;;23.10;62.90;;;;;;5022092;28;20052;-60
2023/09/10 00:12:43;;;;;;;7.75;6.82;;;23.10;62.80;;;;;;5003267;28;20591;-63
2023/09/10 00:15:09;;;;;;;8.30;6.80;;;23.10;62.90;;;;;;5018026;28;20037;-63
2023/09/10 00:17:35;;;;;;;7.90;7.15;;;23.10;62.90;;;;;;5019623;28;20038;-63
2023/09/10 00:20:00;;;;;;;9.50;8.20;;;23.10;62.90;;;;;;5017180;28;20876;-62
2023/09/10 00:22:26;;;;;;;8.40;7.00;;;23.00;62.90;;;;;;5017349;28;20362;-62
2023/09/10 00:24:51;;;;;;;7.38;6.70;;;23.10;62.90;;;;;;5018425;28;20155;-63
2023/09/10 00:27:17;;;;;;;8.35;7.55;;;23.00;62.90;;;;;;5016797;28;20044;-56
2023/09/10 00:29:42;;;;;;;9.05;8.00;;;23.00;62.90;;;;;;5016335;28;20053;-62
2023/09/10 00:32:08;;;;;;;8.15;6.80;;;23.00;62.90;;;;;;5014760;28;20863;-63
2023/09/10 00:34:34;;;;;;;7.65;6.70;;;23.00;63.00;;;;;;5017686;28;20408;-63
2023/09/10 00:37:00;;;;;;;8.25;7.45;;;23.00;62.90;;;;;;5020380;28;20168;-62
2023/09/10 00:39:26;;;;;;;7.97;7.05;;;22.90;62.90;;;;;;5021418;28;20108;-63
2023/09/10 00:41:53;;;;;;;8.15;7.35;;;23.00;63.00;;;;;;5018994;28;20117;-57
2023/09/10 00:44:20;;;;;;;7.47;6.78;;;22.90;62.80;;;;;;5020729;28;20037;-63
2023/09/10 00:46:45;;;;;;;7.75;6.97;;;23.00;63.10;;;;;;5018717;28;20086;-63
2023/09/10 00:49:11;;;;;;;9.10;8.00;;;22.90;63.10;;;;;;5017375;28;20045;-63
2023/09/10 00:51:37;;;;;;;8.15;7.32;;;22.90;63.10;;;;;;5017855;28;20037;-57
2023/09/10 00:54:03;;;;;;;8.07;7.22;;;22.90;62.90;;;;;;5017078;28;20299;-61
2023/09/10 00:56:29;;;;;;;8.38;7.45;;;22.90;62.90;;;;;;5017059;28;20030;-61
2023/09/10 00:58:54;;;;;;;9.65;7.78;;;22.90;63.00;;;;;;5015499;28;20056;-59
2023/09/10 01:01:20;;;;;;;7.93;7.13;;;22.90;63.10;;;;;;5015524;28;20045;-63
2023/09/10 01:03:46;;;;;;;8.20;7.22;;;22.90;63.00;;;;;;5015326;28;20025;-59
2023/09/10 01:06:11;;;;;;;7.93;7.13;;;22.90;62.90;;;;;;5021234;28;20025;-63
2023/09/10 01:08:37;;;;;;;8.40;7.20;;;22.90;62.80;;;;;;5020932;28;20091;-62
2023/09/10 01:11:14;;;;;;;8.77;7.63;;;22.90;62.90;;;;;;5019688;28;20045;-59
2023/09/10 01:13:39;;;;;;;10.38;8.00;;;22.90;62.90;;;;;;5019533;28;20041;-63
2023/09/10 01:16:12;;;;;;;9.88;8.88;;;23.00;62.90;;;;;;5017358;28;20048;-63
2023/09/10 01:18:44;;;;;;;9.70;8.25;;;22.90;62.90;;;;;;5016624;28;20510;-58
2023/09/10 01:21:33;;;;;;;10.90;9.45;;;22.90;62.90;;;;;;5015302;28;20040;-63
2023/09/10 01:24:35;;;;;;;12.00;10.15;;;22.90;62.90;;;;;;5016158;28;20038;-63
2023/09/10 01:27:00;;;;;;;13.57;11.52;;;22.90;62.80;;;;;;5014612;28;20076;-62
2023/09/10 01:29:26;;;;;;;15.82;12.55;;;22.90;62.90;;;;;;5016484;28;20073;-63
2023/09/10 01:31:56;;;;;;;22.65;16.83;;;22.90;63.00;;;;;;5013119;28;20061;-59
2023/09/10 01:34:25;;;;;;;36.58;25.58;;;22.90;63.00;;;;;;5021456;28;20268;-63
2023/09/10 01:36:56;;;;;;;47.90;31.55;;;22.90;63.00;;;;;;5002792;28;20116;-61
2023/09/10 01:39:36;;;;;;;55.40;34.30;;;22.90;63.00;;;;;;5019144;28;20040;-59
2023/09/10 01:42:03;;;;;;;60.25;37.53;;;22.80;62.90;;;;;;5018236;28;20030;-63
2023/09/10 01:44:31;;;;;;;60.40;37.97;;;22.80;63.00;;;;;;5019053;28;20037;-62
2023/09/10 01:46:57;;;;;;;60.50;37.28;;;22.80;63.10;;;;;;5016980;28;20025;-62
2023/09/10 01:49:23;;;;;;;53.15;34.60;;;22.80;63.00;;;;;;5016734;28;20041;-63
2023/09/10 01:51:48;;;;;;;54.90;35.13;;;22.80;63.10;;;;;;5017385;28;20033;-62
2023/09/10 01:54:14;;;;;;;49.05;31.33;;;22.80;63.00;;;;;;5015329;28;20037;-63
2023/09/10 01:56:39;;;;;;;47.67;30.58;;;22.80;63.10;;;;;;5014333;28;20115;-62
2023/09/10 01:59:05;;;;;;;44.45;28.58;;;22.80;63.10;;;;;;5015347;28;20029;-62
2023/09/10 02:01:30;;;;;;;40.55;25.75;;;22.70;63.00;;;;;;5014853;28;20029;-60
2023/09/10 02:03:56;;;;;;;37.90;25.05;;;22.80;63.10;;;;;;5018837;28;20037;-62
2023/09/10 02:06:21;;;;;;;35.83;22.75;;;22.80;63.10;;;;;;5020352;28;20034;-59
2023/09/10 02:08:47;;;;;;;30.83;22.40;;;22.70;62.90;;;;;;5019107;28;20098;-63
2023/09/10 02:11:12;;;;;;;29.20;21.42;;;22.70;63.10;;;;;;5015885;28;20113;-63
2023/09/10 02:13:38;;;;;;;28.20;19.63;;;22.70;63.00;;;;;;5020905;28;20408;-63
2023/09/10 02:16:04;;;;;;;27.20;18.92;;;22.80;63.10;;;;;;5020830;28;20272;-60
2023/09/10 02:18:29;;;;;;;24.63;17.77;;;22.70;63.00;;;;;;4986915;28;20033;-63
2023/09/10 02:20:55;;;;;;;22.75;16.50;;;22.70;63.10;;;;;;5018427;28;20111;-62
2023/09/10 02:23:21;;;;;;;22.13;16.02;;;22.70;62.90;;;;;;5019059;28;20025;-63
2023/09/10 02:25:46;;;;;;;21.58;15.75;;;22.70;63.10;;;;;;5020241;28;20026;-62
2023/09/10 02:28:12;;;;;;;18.25;14.05;;;22.70;62.70;;;;;;5018301;28;20072;-59
2023/09/10 02:30:37;;;;;;;22.33;15.73;;;22.70;62.80;;;;;;5017936;28;20029;-63
2023/09/10 02:33:03;;;;;;;18.05;13.50;;;22.70;62.90;;;;;;5023503;28;20137;-60
2023/09/10 02:35:29;;;;;;;18.35;13.77;;;22.70;63.10;;;;;;5025108;28;20140;-62
2023/09/10 02:37:54;;;;;;;17.13;12.30;;;22.60;62.80;;;;;;5019610;28;20029;-62
2023/09/10 02:40:20;;;;;;;18.27;13.65;;;22.60;62.90;;;;;;5026095;28;20491;-63
2023/09/10 02:42:45;;;;;;;18.42;12.75;;;22.70;63.10;;;;;;5021323;28;20030;-60
2023/09/10 02:45:12;;;;;;;17.55;12.15;;;22.60;63.10;;;;;;5020426;28;20108;-63
2023/09/10 02:47:37;;;;;;;14.38;11.57;;;22.70;63.00;;;;;;5017420;28;20079;-58
2023/09/10 02:50:04;;;;;;;15.82;11.27;;;22.60;63.10;;;;;;5019173;28;20535;-62
2023/09/10 02:52:30;;;;;;;14.93;11.10;;;22.60;63.00;;;;;;5018953;28;20044;-63
2023/09/10 02:54:56;;;;;;;16.23;11.35;;;22.60;63.00;;;;;;5016829;28;20045;-62
2023/09/10 02:57:22;;;;;;;15.25;10.88;;;22.60;63.00;;;;;;5018766;28;20342;-63
2023/09/10 02:59:48;;;;;;;15.68;10.98;;;22.60;63.00;;;;;;5014638;28;20032;-62
2023/09/10 03:02:13;;;;;;;12.80;10.50;;;22.60;62.90;;;;;;5019370;28;20045;-63
2023/09/10 03:04:39;;;;;;;13.02;10.63;;;22.60;63.00;;;;;;5022893;28;20122;-63
2023/09/10 03:07:04;;;;;;;13.15;10.25;;;22.60;63.10;;;;;;5021038;28;20041;-63
2023/09/10 03:09:30;;;;;;;12.07;9.60;;;22.60;63.10;;;;;;5020904;28;20029;-60
2023/09/10 03:12:33;;;;;;;12.10;10.35;;;22.50;62.90;;;;;;5017465;28;20408;-63
2023/09/10 03:14:59;;;;;;;11.32;9.77;;;22.60;62.80;;;;;;5020617;28;20052;-62
2023/09/10 03:17:24;;;;;;;12.13;9.30;;;22.50;63.10;;;;;;5018036;28;20460;-64
2023/09/10 03:19:50;;;;;;;12.75;9.63;;;22.60;63.10;;;;;;5018292;28;20041;-63
2023/09/10 03:22:15;;;;;;;11.60;9.43;;;22.60;63.10;;;;;;5018034;28;20403;-63
2023/09/10 03:24:41;;;;;;;10.48;9.18;;;22.60;63.10;;;;;;5016529;28;20048;-63
2023/09/10 03:27:06;;;;;;;12.13;9.40;;;22.60;63.10;;;;;;5019422;28;20037;-63
2023/09/10 03:29:33;;;;;;;10.73;9.20;;;22.60;63.10;;;;;;5015505;28;20049;-63
2023/09/10 03:31:59;;;;;;;9.93;8.20;;;22.50;63.00;;;;;;5019191;28;20048;-62
2023/09/10 03:34:24;;;;;;;10.85;9.00;;;22.50;63.00;;;;;;5023178;28;20565;-62
2023/09/10 03:36:50;;;;;;;10.48;8.90;;;22.50;63.00;;;;;;5020079;28;20084;-63
2023/09/10 03:39:15;;;;;;;9.40;8.30;;;22.50;63.10;;;;;;5017991;28;20034;-56
2023/09/10 03:41:41;;;;;;;9.77;8.23;;;22.50;63.00;;;;;;5020716;28;20034;-62
2023/09/10 03:44:06;;;;;;;10.68;8.45;;;22.50;63.10;;;;;;5018049;28;21103;-60
2023/09/10 03:46:32;;;;;;;8.63;7.68;;;22.50;63.00;;;;;;5016524;28;20045;-63
2023/09/10 03:48:57;;;;;;;10.10;8.02;;;22.60;63.10;;;;;;4998404;28;20034;-63
2023/09/10 03:51:23;;;;;;;11.27;8.38;;;22.50;63.00;;;;;;5017077;28;20037;-62
2023/09/10 03:53:48;;;;;;;8.95;8.00;;;22.60;63.10;;;;;;5017321;28;20034;-60
2023/09/10 03:56:14;;;;;;;8.45;7.55;;;22.60;63.10;;;;;;5018699;28;20061;-59
2023/09/10 03:58:39;;;;;;;8.65;7.70;;;22.50;63.10;;;;;;5015401;28;20037;-63
2023/09/10 04:01:05;;;;;;;9.65;8.30;;;22.50;63.10;;;;;;5017818;28;20034;-62
2023/09/10 04:03:30;;;;;;;10.40;8.18;;;22.50;63.10;;;;;;5023239;28;20540;-63
2023/09/10 04:05:56;;;;;;;9.20;7.13;;;22.50;63.20;;;;;;5017896;28;20034;-62
2023/09/10 04:08:21;;;;;;;10.65;6.70;;;22.50;63.10;;;;;;5020660;28;20067;-63
2023/09/10 04:10:47;;;;;;;9.32;7.70;;;22.50;63.10;;;;;;5020554;28;20051;-63
2023/09/10 04:13:12;;;;;;;8.02;7.25;;;22.50;63.20;;;;;;5019458;28;20108;-63
2023/09/10 04:15:38;;;;;;;7.70;6.90;;;22.50;63.10;;;;;;5018389;28;20113;-63
2023/09/10 04:18:05;;;;;;;8.13;7.32;;;22.50;63.20;;;;;;5016702;28;20048;-63
2023/09/10 04:20:30;;;;;;;7.63;6.45;;;22.50;63.10;;;;;;5016791;28;20083;-65
2023/09/10 04:22:56;;;;;;;7.72;6.93;;;22.40;63.00;;;;;;5015679;28;20034;-62
2023/09/10 04:25:22;;;;;;;8.27;7.28;;;22.40;63.20;;;;;;5018304;28;20439;-64
2023/09/10 04:27:47;;;;;;;7.57;6.80;;;22.40;63.10;;;;;;5017706;28;20033;-63
2023/09/10 04:30:13;;;;;;;7.93;7.05;;;22.40;63.20;;;;;;5017158;28;20067;-63
2023/09/10 04:32:38;;;;;;;6.82;6.18;;;22.40;63.10;;;;;;5022536;28;20084;-63
2023/09/10 04:35:08;;;;;;;7.65;6.85;;;22.40;63.20;;;;;;5018133;28;20033;-62
2023/09/10 04:37:34;;;;;;;6.95;6.25;;;22.40;63.10;;;;;;5016639;28;20033;-63
2023/09/10 04:40:06;;;;;;;7.45;6.75;;;22.40;63.10;;;;;;5015225;28;20506;-64
2023/09/10 04:42:32;;;;;;;8.90;7.07;;;22.40;63.10;;;;;;5015104;28;20037;-63
2023/09/10 04:44:58;;;;;;;7.45;6.75;;;22.40;63.10;;;;;;5016928;28;20099;-63
2023/09/10 04:47:23;;;;;;;6.78;6.13;;;22.40;63.10;;;;;;5016549;28;20030;-63
2023/09/10 04:49:49;;;;;;;7.63;6.45;;;22.40;63.20;;;;;;5016293;28;20037;-63
2023/09/10 04:52:15;;;;;;;7.20;6.55;;;22.40;63.20;;;;;;5014183;28;20102;-63
2023/09/10 04:54:41;;;;;;;7.05;6.40;;;22.40;63.20;;;;;;5014871;28;20049;-64
2023/09/10 04:57:07;;;;;;;7.90;7.10;;;22.40;63.10;;;;;;5013265;28;20112;-62
2023/09/10 04:59:33;;;;;;;8.27;6.63;;;22.40;63.30;;;;;;5013398;28;20567;-62
2023/09/10 05:02:00;;;;;;;7.05;6.32;;;22.40;63.20;;;;;;5019619;28;20091;-63
2023/09/10 05:04:26;;;;;;;8.45;7.25;;;22.40;63.10;;;;;;5019624;28;20044;-63
2023/09/10 05:06:51;;;;;;;7.43;6.75;;;22.40;63.20;;;;;;5016697;28;20393;-62
2023/09/10 05:09:17;;;;;;;7.85;6.95;;;22.30;63.10;;;;;;5016102;28;20037;-64
2023/09/10 05:11:42;;;;;;;7.93;7.20;;;22.40;63.20;;;;;;5015214;28;20535;-63
2023/09/10 05:14:08;;;;;;;7.38;6.53;;;22.40;63.20;;;;;;5016103;28;20049;-64
2023/09/10 05:16:33;;;;;;;6.82;5.95;;;22.30;63.00;;;;;;5014402;28;20041;-60
2023/09/10 05:18:59;;;;;;;7.75;6.43;;;22.40;63.20;;;;;;5014125;28;20061;-63
2023/09/10 05:21:24;;;;;;;6.22;5.63;;;22.30;63.20;;;;;;5014316;28;20029;-63
2023/09/10 05:23:50;;;;;;;7.97;6.93;;;22.30;63.20;;;;;;5016404;28;20064;-59
2023/09/10 05:26:16;;;;;;;7.53;6.72;;;22.30;63.10;;;;;;5013063;28;20034;-63
2023/09/10 05:28:41;;;;;;;7.55;6.85;;;22.30;63.20;;;;;;5013786;28;20056;-63
2023/09/10 05:31:10;;;;;;;7.18;6.47;;;22.30;63.20;;;;;;5019044;28;20026;-63
2023/09/10 05:33:35;;;;;;;7.85;6.72;;;22.30;63.20;;;;;;5018792;28;20048;-62
2023/09/10 05:36:01;;;;;;;7.38;6.60;;;22.30;63.20;;;;;;5016270;28;20030;-63
2023/09/10 05:38:27;;;;;;;8.00;6.55;;;22.30;63.20;;;;;;5018230;28;20021;-62
2023/09/10 05:40:53;;;;;;;6.63;5.93;;;22.30;63.30;;;;;;5014977;28;20029;-63
2023/09/10 05:43:19;;;;;;;7.13;6.47;;;22.30;63.30;;;;;;5018834;28;20064;-64
2023/09/10 05:45:47;;;;;;;7.22;6.53;;;22.30;63.20;;;;;;5015634;28;20057;-63
2023/09/10 05:48:13;;;;;;;8.30;6.75;;;22.30;63.20;;;;;;5015665;28;20044;-64
2023/09/10 05:50:40;;;;;;;7.20;6.47;;;22.30;63.20;;;;;;5018235;28;20041;-63
2023/09/10 05:53:06;;;;;;;7.75;6.55;;;22.30;63.10;;;;;;5017448;28;20369;-61
2023/09/10 05:55:31;;;;;;;8.23;6.10;;;22.30;63.20;;;;;;5018458;28;20021;-63
2023/09/10 05:57:57;;;;;;;6.72;6.13;;;22.30;63.20;;;;;;5017707;28;20504;-62
2023/09/10 06:00:22;;;;;;;6.57;5.80;;;22.30;63.20;;;;;;5024547;28;20040;-63
2023/09/10 06:02:49;;;;;;;10.30;5.90;;;22.40;63.20;;;;;;5023749;28;20462;-62
2023/09/10 06:05:16;;;;;;;9.98;5.90;;;22.40;63.20;;;;;;5022089;28;20033;-63
2023/09/10 06:07:42;;;;;;;7.55;6.47;;;22.40;63.10;;;;;;5021674;28;20531;-63
2023/09/10 06:10:09;;;;;;;7.10;6.18;;;22.40;63.10;;;;;;5021954;28;20065;-63
2023/09/10 06:12:36;;;;;;;8.15;6.40;;;22.40;63.20;;;;;;5021289;28;20037;-63
2023/09/10 06:15:03;;;;;;;8.10;6.78;;;22.40;63.70;;;;;;5017030;28;20561;-62
2023/09/10 06:17:28;;;;;;;8.25;6.47;;;22.40;63.10;;;;;;5016661;28;20099;-63
2023/09/10 06:19:54;;;;;;;7.63;6.70;;;22.40;63.10;;;;;;5016132;28;20038;-62
2023/09/10 06:22:19;;;;;;;7.10;6.40;;;22.40;63.10;;;;;;5016582;28;20075;-63
2023/09/10 06:24:45;;;;;;;7.57;6.65;;;22.40;63.10;;;;;;5019078;28;20037;-62
2023/09/10 06:27:10;;;;;;;8.32;6.47;;;22.40;63.10;;;;;;5015077;28;20120;-64
2023/09/10 06:29:36;;;;;;;7.90;6.40;;;22.50;63.20;;;;;;5023850;28;20029;-63
2023/09/10 06:32:02;;;;;;;7.40;6.57;;;22.50;63.30;;;;;;5018924;28;20045;-63
2023/09/10 06:34:27;;;;;;;7.10;6.40;;;22.50;63.30;;;;;;5022386;28;20053;-63
2023/09/10 06:36:53;;;;;;;6.00;5.50;;;22.50;63.30;;;;;;5019992;28;20053;-62
2023/09/10 06:39:18;;;;;;;7.32;6.20;;;22.50;63.30;;;;;;5018572;28;20641;-63
2023/09/10 06:41:44;;;;;;;7.68;6.35;;;22.50;63.50;;;;;;5019426;28;20061;-63
2023/09/10 06:44:09;;;;;;;7.43;6.47;;;22.50;63.50;;;;;;5017514;28;20467;-63
2023/09/10 06:46:35;;;;;;;6.75;6.05;;;22.50;63.40;;;;;;5018246;28;20026;-63
2023/09/10 06:49:00;;;;;;;6.47;5.88;;;22.50;63.50;;;;;;5014227;28;20246;-63
2023/09/10 06:51:27;;;;;;;6.93;6.22;;;22.50;63.40;;;;;;5018112;28;20408;-63
2023/09/10 06:53:53;;;;;;;6.22;5.63;;;22.50;63.30;;;;;;5016559;28;20034;-63
2023/09/10 06:56:18;;;;;;;7.22;6.22;;;22.60;63.30;;;;;;5017010;28;20096;-65
2023/09/10 06:58:44;;;;;;;7.32;6.63;;;22.50;63.20;;;;;;5018715;28;20559;-63
2023/09/10 07:01:09;;;;;;;7.63;6.32;;;22.60;63.10;;;;;;5019444;28;20030;-63
2023/09/10 07:03:35;;;;;;;7.22;6.50;;;22.60;63.20;;;;;;5020682;28;20503;-64
2023/09/10 07:06:04;;;;;;;7.78;6.50;;;22.60;63.10;;;;;;5019260;28;20022;-62
2023/09/10 07:08:30;;;;;;;7.43;6.63;;;22.60;63.10;;;;;;5018353;28;20083;-62
2023/09/10 07:10:57;;;;;;;7.43;6.68;;;22.60;63.00;;;;;;5016882;28;20041;-63
2023/09/10 07:13:23;;;;;;;8.15;6.28;;;22.60;63.00;;;;;;5015445;28;20036;-63
2023/09/10 07:15:48;;;;;;;7.07;6.38;;;22.60;63.00;;;;;;4997525;28;20030;-63
2023/09/10 07:18:14;;;;;;;7.43;6.70;;;22.60;63.00;;;;;;5014405;28;20062;-63
2023/09/10 07:20:39;;;;;;;7.50;6.65;;;22.60;63.00;;;;;;5015997;28;20107;-63
2023/09/10 07:23:05;;;;;;;7.55;6.10;;;22.60;62.90;;;;;;5010770;28;20037;-63
2023/09/10 07:25:30;;;;;;;7.25;6.55;;;22.60;62.90;;;;;;5016209;28;20123;-63
2023/09/10 07:27:56;;;;;;;7.80;6.43;;;22.60;62.90;;;;;;5020217;28;20029;-64
2023/09/10 07:30:21;;;;;;;7.55;6.20;;;22.60;62.80;;;;;;5017611;28;20040;-63
2023/09/10 07:32:47;;;;;;;7.00;6.30;;;22.60;63.30;;;;;;5019723;28;20037;-62
2023/09/10 07:35:13;;;;;;;7.95;7.15;;;22.60;62.60;;;;;;5018967;28;20025;-62
2023/09/10 07:37:39;;;;;;;7.05;6.35;;;22.60;62.70;;;;;;5013077;28;20032;-63
2023/09/10 07:40:05;;;;;;;8.23;6.68;;;22.60;62.70;;;;;;5015880;28;20041;-62
2023/09/10 07:42:30;;;;;;;8.15;7.35;;;22.60;62.60;;;;;;5016382;28;20044;-63
2023/09/10 07:44:56;;;;;;;7.47;6.40;;;22.60;62.60;;;;;;5014425;28;20021;-63
2023/09/10 07:47:21;;;;;;;7.75;7.05;;;22.60;62.60;;;;;;5019136;28;20034;-62
2023/09/10 07:49:50;;;;;;;8.05;7.25;;;22.60;62.60;;;;;;5015259;28;20401;-63
2023/09/10 07:52:16;;;;;;;7.68;6.85;;;22.60;62.70;;;;;;5016240;28;20073;-64
2023/09/10 07:54:42;;;;;;;8.18;6.85;;;22.60;62.70;;;;;;5011852;28;20463;-64
2023/09/10 07:57:07;;;;;;;7.68;6.95;;;22.60;62.70;;;;;;5019695;28;20404;-63
2023/09/10 07:59:33;;;;;;;9.15;6.90;;;22.60;62.70;;;;;;5018805;28;20034;-63
2023/09/10 08:02:01;;;;;;;8.55;7.18;;;22.60;62.60;;;;;;5018156;28;20029;-63
2023/09/10 08:04:26;;;;;;;7.20;6.55;;;22.70;62.60;;;;;;5017590;28;20033;-63
2023/09/10 08:06:53;;;;;;;8.45;7.20;;;22.60;62.70;;;;;;5017894;28;20030;-63
2023/09/10 08:09:19;;;;;;;8.25;7.32;;;22.60;63.30;;;;;;5013089;28;20033;-63
2023/09/10 08:11:44;;;;;;;7.68;6.75;;;22.60;62.70;;;;;;5012773;28;20459;-63
2023/09/10 08:14:10;;;;;;;8.80;7.97;;;22.60;62.80;;;;;;5015005;28;20064;-63
2023/09/10 08:16:36;;;;;;;8.23;6.88;;;22.60;63.00;;;;;;5015058;28;20033;-63
2023/09/10 08:19:02;;;;;;;6.78;6.18;;;22.60;63.00;;;;;;5012425;28;20048;-58
2023/09/10 08:21:27;;;;;;;7.18;6.25;;;22.70;63.10;;;;;;5015251;28;20484;-63
2023/09/10 08:23:53;;;;;;;7.70;7.00;;;22.60;63.00;;;;;;5013724;28;20037;-63
2023/09/10 08:26:18;;;;;;;7.35;6.40;;;22.60;63.00;;;;;;5018678;28;20033;-63
2023/09/10 08:28:44;;;;;;;7.65;6.95;;;22.70;63.10;;;;;;5016326;28;20044;-64
2023/09/10 08:31:10;;;;;;;9.48;8.55;;;22.70;63.10;;;;;;5016647;28;20041;-63
2023/09/10 08:33:35;;;;;;;7.90;7.10;;;22.70;63.10;;;;;;5015853;28;20029;-64
2023/09/10 08:36:03;;;;;;;7.45;6.40;;;22.70;63.00;;;;;;5014818;28;20047;-64
2023/09/10 08:38:28;;;;;;;8.35;7.38;;;22.70;63.00;;;;;;5010461;28;20032;-64
2023/09/10 08:41:00;;;;;;;8.75;7.63;;;22.70;63.00;;;;;;5014563;28;20022;-62
2023/09/10 08:43:46;;;;;;;8.50;7.53;;;22.70;63.10;;;;;;5014932;28;20040;-63
2023/09/10 08:46:13;;;;;;;7.95;7.18;;;22.70;63.10;;;;;;5011865;28;20029;-63
2023/09/10 08:48:43;;;;;;;8.32;6.45;;;22.70;62.90;;;;;;5012398;28;20496;-61
2023/09/10 08:51:11;;;;;;;8.25;6.90;;;22.70;62.60;;;;;;5015412;28;20034;-63
2023/09/10 08:53:38;;;;;;;8.32;7.22;;;22.70;62.70;;;;;;5001251;28;20320;-62
2023/09/10 08:56:05;;;;;;;8.40;7.50;;;22.70;62.80;;;;;;5016616;28;20511;-63
2023/09/10 08:58:32;;;;;;;7.93;7.18;;;22.70;62.80;;;;;;5018819;28;20041;-62
2023/09/10 09:01:00;;;;;;;9.75;7.75;;;22.70;62.80;;;;;;5017116;28;20557;-63
2023/09/10 09:03:27;;;;;;;8.60;7.22;;;22.70;62.90;;;;;;5016620;28;20105;-64
2023/09/10 09:05:56;;;;;;;15.13;8.52;;;22.70;62.90;;;;;;5016098;28;20052;-64
2023/09/10 09:08:28;;;;;;;7.85;7.05;;;22.70;62.80;;;;;;5016381;28;20508;-63
2023/09/10 09:10:54;;;;;;;7.95;6.95;;;22.80;62.70;;;;;;5004285;28;20103;-64
2023/09/10 09:13:21;;;;;;;8.68;6.65;;;22.80;62.80;;;;;;5013182;28;20444;-63
2023/09/10 09:15:48;;;;;;;7.55;6.57;;;22.70;62.90;;;;;;5018458;28;20026;-64
2023/09/10 09:18:15;;;;;;;7.28;6.57;;;22.70;63.10;;;;;;5012931;28;20084;-63
2023/09/10 09:20:45;;;;;;;8.40;7.20;;;22.80;63.00;;;;;;5013656;28;20034;-63
2023/09/10 09:23:19;;;;;;;8.35;7.45;;;22.70;62.90;;;;;;5018323;28;20249;-62
2023/09/10 09:25:45;;;;;;;9.80;7.50;;;22.70;63.00;;;;;;5019099;28;20033;-63
2023/09/10 09:28:12;;;;;;;8.20;7.45;;;22.70;63.00;;;;;;5021047;28;20481;-63
2023/09/10 09:30:38;;;;;;;8.43;7.43;;;22.70;62.70;;;;;;5022290;28;20037;-63
2023/09/10 09:33:04;;;;;;;7.38;6.57;;;22.70;62.50;;;;;;5020141;28;20034;-60
2023/09/10 09:35:32;;;;;;;7.80;6.45;;;22.70;62.70;;;;;;5022306;28;20036;-62
2023/09/10 09:38:04;;;;;;;8.13;6.45;;;22.70;62.60;;;;;;5021303;28;20490;-61
2023/09/10 09:40:30;;;;;;;7.88;6.63;;;22.70;62.70;;;;;;5017284;28;20124;-63
2023/09/10 09:42:57;;;;;;;8.10;7.10;;;22.70;62.70;;;;;;5018981;28;20128;-63
2023/09/10 09:45:23;;;;;;;7.72;6.03;;;22.70;62.60;;;;;;5015949;28;20375;-63
2023/09/10 09:47:49;;;;;;;8.98;6.85;;;22.80;62.00;;;;;;5017432;28;20104;-62
2023/09/10 09:50:14;;;;;;;8.68;7.20;;;22.80;61.50;;;;;;5016240;28;20042;-63
2023/09/10 09:52:40;;;;;;;7.20;6.28;;;22.80;61.40;;;;;;5017962;28;20025;-63
2023/09/10 09:55:07;;;;;;;8.38;6.00;;;22.90;60.80;;;;;;5020427;28;20091;-62
2023/09/10 09:57:36;;;;;;;9.40;7.55;;;22.90;60.80;;;;;;5022910;28;20063;-63
2023/09/10 10:00:07;;;;;;;7.95;6.97;;;22.90;60.90;;;;;;5021737;28;20133;-63
2023/09/10 10:02:32;;;;;;;9.18;6.00;;;22.90;61.10;;;;;;5019470;28;20309;-63
2023/09/10 10:04:59;;;;;;;8.77;6.63;;;22.80;61.10;;;;;;5021155;28;20034;-63
2023/09/10 10:07:26;;;;;;;7.47;6.28;;;22.80;61.10;;;;;;5018212;28;20444;-63
2023/09/10 10:09:52;;;;;;;8.82;6.97;;;22.80;60.90;;;;;;5017948;28;20042;-63
2023/09/10 10:12:19;;;;;;;6.47;5.82;;;22.80;60.90;;;;;;5014961;28;20042;-62
2023/09/10 10:14:45;;;;;;;7.85;6.30;;;22.80;60.70;;;;;;5015995;28;20462;-64
2023/09/10 10:17:13;;;;;;;7.50;6.55;;;22.80;60.90;;;;;;5018167;28;20030;-64
2023/09/10 10:19:40;;;;;;;7.43;6.28;;;22.80;61.20;;;;;;5016870;28;20492;-64
2023/09/10 10:22:07;;;;;;;6.68;5.85;;;22.80;61.40;;;;;;5017600;28;20450;-63
2023/09/10 10:24:34;;;;;;;7.97;7.18;;;22.80;61.40;;;;;;5022680;28;20271;-63
2023/09/10 10:27:01;;;;;;;7.60;6.80;;;22.80;61.60;;;;;;5023955;28;20522;-62
2023/09/10 10:29:27;;;;;;;6.78;6.05;;;22.80;61.70;;;;;;5020678;28;20069;-63
2023/09/10 10:32:10;;;;;;;8.10;6.80;;;22.80;61.00;;;;;;5021600;28;20037;-63
2023/09/10 10:34:38;;;;;;;8.02;7.18;;;22.90;60.70;;;;;;5017637;28;20036;-63
2023/09/10 10:37:28;;;;;;;6.90;6.30;;;22.90;60.80;;;;;;5017081;28;20127;-63
2023/09/10 10:40:05;;;;;;;7.55;6.78;;;22.90;61.30;;;;;;5019390;28;20029;-63
2023/09/10 10:42:43;;;;;;;6.93;5.97;;;22.80;61.20;;;;;;5014964;28;20096;-63
2023/09/10 10:45:10;;;;;;;6.90;6.18;;;22.80;61.30;;;;;;5018998;28;20029;-63
2023/09/10 10:47:42;;;;;;;7.88;6.28;;;22.90;61.30;;;;;;5018230;28;20089;-63
2023/09/10 10:50:10;;;;;;;7.15;6.22;;;22.80;61.20;;;;;;5016787;28;20061;-63
2023/09/10 10:52:41;;;;;;;7.50;6.28;;;22.90;61.10;;;;;;5025041;28;20089;-63
2023/09/10 10:55:08;;;;;;;6.70;6.05;;;22.90;60.40;;;;;;5020403;28;20452;-63
2023/09/10 10:57:33;;;;;;;7.93;6.68;;;23.00;60.10;;;;;;5021225;28;20042;-62
2023/09/10 11:00:03;;;;;;;7.45;6.75;;;23.00;59.40;;;;;;5019053;28;20164;-63
2023/09/10 11:02:28;;;;;;;7.53;6.72;;;23.10;58.80;;;;;;5007892;28;20145;-59
2023/09/10 11:04:54;;;;;;;7.40;6.70;;;23.00;59.00;;;;;;5019677;28;20030;-61
2023/09/10 11:07:20;;;;;;;7.18;6.05;;;23.10;59.40;;;;;;5015563;28;20798;-63
2023/09/10 11:09:47;;;;;;;7.63;6.82;;;23.10;59.20;;;;;;5015657;28;20046;-63
2023/09/10 11:12:14;;;;;;;7.03;6.43;;;23.10;59.30;;;;;;5011689;28;20419;-63
2023/09/10 11:14:58;;;;;;;8.27;6.28;;;23.00;59.40;;;;;;5015124;28;20537;-61
2023/09/10 11:17:29;;;;;;;7.88;6.88;;;23.00;59.80;;;;;;5014627;28;20045;-63
2023/09/10 11:19:55;;;;;;;7.70;6.90;;;22.90;60.00;;;;;;5015361;28;20029;-60
2023/09/10 11:22:21;;;;;;;9.35;6.75;;;23.00;59.70;;;;;;5019467;28;20041;-63
2023/09/10 11:25:07;;;;;;;7.65;6.85;;;23.10;59.20;;;;;;5019958;28;20091;-63
2023/09/10 11:27:36;;;;;;;;;;;23.10;59.00;;;;;;5020873;28;20048;-61
2023/09/10 11:30:05;;;;;;;7.85;6.60;;;23.00;59.40;;;;;;5018102;28;19920;-62
2023/09/10 11:32:31;;;;;;;7.25;6.53;;;23.00;59.80;;;;;;5018637;28;20030;-63
2023/09/10 11:35:31;;;;;;;7.10;6.43;;;23.00;59.50;;;;;;5017440;28;20037;-62
2023/09/10 11:37:57;;;;;;;8.43;6.38;;;23.00;59.60;;;;;;4935612;28;20058;-62
2023/09/10 11:40:24;;;;;;;7.70;6.93;;;23.10;59.10;;;;;;5000837;28;20495;-62
2023/09/10 11:42:50;;;;;;;7.10;6.43;;;23.10;58.90;;;;;;5014472;28;20030;-61
2023/09/10 11:45:18;;;;;;;7.90;7.15;;;23.10;58.90;;;;;;5019052;28;20064;-55
2023/09/10 11:47:48;;;;;;;7.60;6.82;;;23.10;59.20;;;;;;5012489;28;20053;-64
2023/09/10 11:50:20;;;;;;;8.20;6.95;;;23.10;59.00;;;;;;5015589;28;20034;-64
2023/09/10 11:52:45;;;;;;;9.18;7.15;;;23.20;58.30;;;;;;5021549;28;20440;-63
2023/09/10 11:55:11;;;;;;;8.48;6.88;;;23.20;58.50;;;;;;5022282;28;20516;-63
2023/09/10 11:57:37;;;;;;;7.30;6.60;;;23.20;57.80;;;;;;5021077;28;20139;-62
2023/09/10 12:00:05;;;;;;;7.90;6.78;;;23.30;57.90;;;;;;5018505;28;20038;-63
2023/09/10 12:02:31;;;;;;;7.47;6.35;;;23.30;57.80;;;;;;5017539;28;20120;-57
2023/09/10 12:04:59;;;;;;;9.65;6.70;;;23.30;58.10;;;;;;5016935;28;20128;-63
2023/09/10 12:07:24;;;;;;;7.55;6.82;;;23.20;58.40;;;;;;4996122;28;20031;-59
2023/09/10 12:09:50;;;;;;;9.38;6.07;;;23.20;57.80;;;;;;5016617;28;20029;-60
2023/09/10 12:12:21;;;;;;;6.97;6.28;;;23.30;58.80;;;;;;5013721;28;20048;-59
2023/09/10 12:14:47;;;;;;;7.35;6.65;;;23.30;58.30;;;;;;5015060;28;20029;-63
2023/09/10 12:17:13;;;;;;;6.82;6.13;;;23.30;58.80;;;;;;5011810;28;20397;-62
2023/09/10 12:19:40;;;;;;;7.22;6.53;;;23.30;58.10;;;;;;5020785;28;20049;-63
2023/09/10 12:22:09;;;;;;;8.23;7.43;;;23.40;57.40;;;;;;5017573;28;20030;-64
2023/09/10 12:24:36;;;;;;;10.32;7.18;;;23.50;56.50;;;;;;5027256;28;20034;-62
2023/09/10 12:27:02;;;;;;;7.13;6.43;;;23.50;56.30;;;;;;5017709;28;20037;-63
2023/09/10 12:29:28;;;;;;;6.85;6.15;;;23.50;56.50;;;;;;5008770;28;20049;-63
2023/09/10 12:31:56;;;;;;;7.95;7.18;;;23.40;57.00;;;;;;5017317;28;20036;-63
2023/09/10 12:34:22;;;;;;;7.45;6.60;;;23.50;56.50;;;;;;4998326;28;20121;-62
2023/09/10 12:36:50;;;;;;;9.48;6.35;;;23.50;56.10;;;;;;5015281;28;20057;-60
2023/09/10 12:39:30;;;;;;;8.73;7.25;;;23.50;55.80;;;;;;5011202;28;20030;-63
2023/09/10 12:42:01;;;;;;;7.05;6.35;;;23.60;55.50;;;;;;5017484;28;20033;-63